createdAt,value
2023-03-11T00:01:35.946Z,1.50
2023-03-11T00:03:40.768Z,1.65
2023-03-11T00:05:47.872Z,1.42
2023-03-11T00:07:52.767Z,2.97
2023-03-11T00:09:57.524Z,1.65
2023-03-11T00:12:05.421Z,1.30
2023-03-11T00:14:10.370Z,5.57
2023-03-11T00:16:15.231Z,1.98
2023-03-11T00:18:21.246Z,1.25
2023-03-11T00:20:28.043Z,4.43
2023-03-11T00:22:32.871Z,1.52
2023-03-11T00:24:37.873Z,1.55
2023-03-11T00:26:42.688Z,4.07
2023-03-11T00:28:50.488Z,0.90
2023-03-11T00:30:55.535Z,1.77
2023-03-11T00:33:01.165Z,1.70
2023-03-11T00:35:07.554Z,1.65
2023-03-11T00:37:12.460Z,1.63
2023-03-11T00:39:17.239Z,2.75
2023-03-11T00:41:22.215Z,1.20
2023-03-11T00:43:27.226Z,2.65
2023-03-11T00:45:34.867Z,1.95
2023-03-11T00:47:39.724Z,2.47
2023-03-11T00:49:44.638Z,2.33
2023-03-11T00:51:49.545Z,1.40
2023-03-11T00:53:54.409Z,1.38
2023-03-11T00:55:59.340Z,4.05
2023-03-11T00:58:06.418Z,1.88
2023-03-11T01:00:21.507Z,1.65
2023-03-11T01:02:29.422Z,1.13
2023-03-11T01:04:34.307Z,1.30
2023-03-11T01:06:45.189Z,1.17
2023-03-11T01:08:50.650Z,1.23
2023-03-11T01:10:55.554Z,1.88
2023-03-11T01:13:00.756Z,1.13
2023-03-11T01:15:06.427Z,0.80
2023-03-11T01:17:11.223Z,2.85
2023-03-11T01:19:19.241Z,1.50
2023-03-11T01:21:25.378Z,3.58
2023-03-11T01:23:32.609Z,0.80
2023-03-11T01:25:37.685Z,3.72
2023-03-11T01:27:42.479Z,0.95
2023-03-11T01:29:47.356Z,1.52
2023-03-11T01:31:52.180Z,0.85
2023-03-11T01:33:57.103Z,1.15
2023-03-11T01:36:04.541Z,0.90
2023-03-11T01:38:09.433Z,0.90
2023-03-11T01:40:20.242Z,0.80
2023-03-11T01:42:25.109Z,1.30
2023-03-11T01:44:30.755Z,1.75
2023-03-11T01:47:02.240Z,1.83
2023-03-11T01:49:15.380Z,1.10
2023-03-11T01:51:28.726Z,1.92
2023-03-11T01:53:33.741Z,1.10
2023-03-11T01:55:39.257Z,0.90
2023-03-11T01:57:47.438Z,1.10
2023-03-11T01:59:56.060Z,0.80
2023-03-11T02:02:04.986Z,2.53
2023-03-11T02:04:09.835Z,1.23
2023-03-11T02:06:18.965Z,1.13
2023-03-11T02:08:26.826Z,1.63
2023-03-11T02:10:33.351Z,1.98
2023-03-11T02:12:39.969Z,2.90
2023-03-11T02:14:48.409Z,1.30
2023-03-11T02:16:53.214Z,2.65
2023-03-11T02:18:58.630Z,2.42
2023-03-11T02:21:12.686Z,2.13
2023-03-11T02:23:19.489Z,1.63
2023-03-11T02:25:31.757Z,1.30
2023-03-11T02:27:42.954Z,4.47
2023-03-11T02:29:51.668Z,1.50
2023-03-11T02:31:58.779Z,1.92
2023-03-11T02:34:06.535Z,1.27
2023-03-11T02:36:36.140Z,1.70
2023-03-11T02:38:42.285Z,1.52
2023-03-11T02:40:59.483Z,1.55
2023-03-11T02:43:11.072Z,1.23
2023-03-11T02:45:21.308Z,2.67
2023-03-11T02:47:26.893Z,1.42
2023-03-11T02:49:32.987Z,1.48
2023-03-11T02:51:38.243Z,1.85
2023-03-11T02:55:53.095Z,2.42
2023-03-11T02:57:57.854Z,2.28
2023-03-11T03:00:11.153Z,1.45
2023-03-11T03:02:16.820Z,1.05
2023-03-11T03:04:21.849Z,2.22
2023-03-11T03:08:33.507Z,1.40
2023-03-11T03:10:38.450Z,1.58
2023-03-11T03:14:48.196Z,1.60
2023-03-11T03:16:57.474Z,2.05
2023-03-11T03:19:02.387Z,1.27
2023-03-11T03:21:08.213Z,3.72
2023-03-11T03:23:13.183Z,1.33
2023-03-11T03:25:18.099Z,1.02
2023-03-11T03:27:23.753Z,3.33
2023-03-11T03:29:29.429Z,2.90
2023-03-11T03:31:34.329Z,1.85
2023-03-11T03:33:43.076Z,3.03
2023-03-11T03:35:49.211Z,2.35
2023-03-11T03:37:59.022Z,1.55
2023-03-11T03:40:07.457Z,1.10
2023-03-11T03:42:13.318Z,1.65
2023-03-11T03:44:19.229Z,2.17
2023-03-11T03:46:25.620Z,1.15
2023-03-11T03:48:34.309Z,1.70
2023-03-11T03:50:45.107Z,3.08
2023-03-11T03:52:53.232Z,1.10
2023-03-11T03:55:00.000Z,1.73
2023-03-11T03:57:06.513Z,1.60
2023-03-11T03:59:17.838Z,2.00
2023-03-11T04:01:27.790Z,3.50
2023-03-11T04:03:35.292Z,1.58
2023-03-11T04:05:47.958Z,1.15
2023-03-11T04:07:52.941Z,2.40
2023-03-11T04:09:59.093Z,1.67
2023-03-11T04:12:04.078Z,1.67
2023-03-11T04:14:11.593Z,3.10
2023-03-11T04:16:25.749Z,3.00
2023-03-11T04:18:36.792Z,1.77
2023-03-11T04:20:43.760Z,1.10
2023-03-11T04:22:51.173Z,3.25
2023-03-11T04:24:57.553Z,2.95
2023-03-11T04:27:02.584Z,1.90
2023-03-11T04:29:09.722Z,2.08
2023-03-11T04:31:19.859Z,1.85
2023-03-11T04:33:25.098Z,2.92
2023-03-11T04:35:30.187Z,2.03
2023-03-11T04:37:35.697Z,2.42
2023-03-11T04:39:43.207Z,2.28
2023-03-11T04:41:48.067Z,2.05
2023-03-11T04:43:56.663Z,2.53
2023-03-11T04:46:01.582Z,4.57
2023-03-11T04:48:07.297Z,3.17
2023-03-11T04:50:14.088Z,2.40
2023-03-11T04:52:19.842Z,3.65
2023-03-11T04:54:24.737Z,1.25
2023-03-11T04:56:33.288Z,3.38
2023-03-11T04:58:38.442Z,2.35
2023-03-11T05:00:43.880Z,3.83
2023-03-11T05:02:51.000Z,1.95
2023-03-11T05:04:55.861Z,4.38
2023-03-11T05:07:00.813Z,2.42
2023-03-11T05:09:05.913Z,3.25
2023-03-11T05:11:13.765Z,2.15
2023-03-11T05:13:23.832Z,1.73
2023-03-11T05:15:34.456Z,3.63
2023-03-11T05:17:40.659Z,7.07
2023-03-11T05:19:46.132Z,3.92
2023-03-11T05:21:57.777Z,4.22
2023-03-11T05:24:04.065Z,2.75
2023-03-11T05:26:09.656Z,5.50
2023-03-11T05:28:15.593Z,3.65
2023-03-11T05:30:29.835Z,3.38
2023-03-11T05:32:36.272Z,2.28
2023-03-11T05:34:44.168Z,4.32
2023-03-11T05:36:49.401Z,2.92
2023-03-11T05:38:55.909Z,6.32
2023-03-11T05:41:01.121Z,2.85
2023-03-11T05:43:06.103Z,2.22
2023-03-11T05:45:15.592Z,5.55
2023-03-11T05:47:25.852Z,2.95
2023-03-11T05:49:33.754Z,2.92
2023-03-11T05:51:38.563Z,3.58
2023-03-11T05:53:48.262Z,4.53
2023-03-11T05:56:00.812Z,3.42
2023-03-11T05:58:06.293Z,4.47
2023-03-11T06:00:13.960Z,2.92
2023-03-11T06:02:21.152Z,4.05
2023-03-11T06:04:29.645Z,3.30
2023-03-11T06:06:35.396Z,4.13
2023-03-11T06:08:40.240Z,4.05
2023-03-11T06:10:48.784Z,3.60
2023-03-11T06:12:54.852Z,3.90
2023-03-11T06:15:07.746Z,5.15
2023-03-11T06:17:15.973Z,4.53
2023-03-11T06:19:21.633Z,3.38
2023-03-11T06:21:31.751Z,2.63
2023-03-11T06:23:36.937Z,4.25
2023-03-11T06:25:42.246Z,3.83
2023-03-11T06:27:51.708Z,2.58
2023-03-11T06:29:57.596Z,2.42
2023-03-11T06:32:03.459Z,3.58
2023-03-11T06:34:08.554Z,3.22
2023-03-11T06:38:22.568Z,4.25
2023-03-11T06:40:27.504Z,6.75
2023-03-11T06:42:35.175Z,4.05
2023-03-11T06:44:40.944Z,3.80
2023-03-11T06:46:46.206Z,3.95
2023-03-11T06:48:52.714Z,3.05
2023-03-11T06:50:59.903Z,6.25
2023-03-11T06:53:07.934Z,3.63
2023-03-11T06:55:16.759Z,7.47
2023-03-11T06:57:21.928Z,4.75
2023-03-11T06:59:28.426Z,4.60
2023-03-11T07:01:33.915Z,4.57
2023-03-11T07:03:40.988Z,3.85
2023-03-11T07:05:45.823Z,3.88
2023-03-11T07:07:50.750Z,2.22
2023-03-11T07:09:58.133Z,5.00
2023-03-11T07:12:06.806Z,4.00
2023-03-11T07:14:14.621Z,7.35
2023-03-11T07:16:26.017Z,6.47
2023-03-11T07:18:38.498Z,5.60
2023-03-11T07:20:43.853Z,7.65
2023-03-11T07:22:48.601Z,6.93
2023-03-11T07:24:53.650Z,3.72
2023-03-11T07:26:58.468Z,7.10
2023-03-11T07:29:05.991Z,7.75
2023-03-11T07:31:11.590Z,3.58
2023-03-11T07:33:16.380Z,3.95
2023-03-11T07:35:21.181Z,5.93
2023-03-11T07:37:26.017Z,7.57
2023-03-11T07:39:31.046Z,4.22
2023-03-11T07:41:39.087Z,4.22
2023-03-11T07:45:52.363Z,4.22
2023-03-11T07:47:57.346Z,5.38
2023-03-11T07:50:02.126Z,7.05
2023-03-11T07:52:07.469Z,6.00
2023-03-11T07:54:13.709Z,5.30
2023-03-11T07:56:20.358Z,4.03
2023-03-11T07:58:25.326Z,4.72
2023-03-11T08:00:30.124Z,2.75
2023-03-11T08:02:37.550Z,3.15
2023-03-11T08:04:42.333Z,4.82
2023-03-11T08:06:49.890Z,2.75
2023-03-11T08:08:54.972Z,4.70
2023-03-11T08:10:59.780Z,6.80
2023-03-11T08:13:04.591Z,3.85
2023-03-11T08:15:11.083Z,4.68
2023-03-11T08:17:16.350Z,3.08
2023-03-11T08:19:23.745Z,3.67
2023-03-11T08:21:32.042Z,3.78
2023-03-11T08:23:37.528Z,3.42
2023-03-11T08:27:47.539Z,6.18
2023-03-11T08:29:52.410Z,3.83
2023-03-11T08:31:57.280Z,3.78
2023-03-11T08:34:04.211Z,3.35
2023-03-11T08:36:12.407Z,1.88
2023-03-11T08:38:17.240Z,3.88
2023-03-11T08:40:22.270Z,1.88
2023-03-11T08:44:31.935Z,7.25
2023-03-11T08:48:42.250Z,4.87
2023-03-11T08:50:53.893Z,4.20
2023-03-11T08:53:03.341Z,2.75
2023-03-11T08:55:11.442Z,3.65
2023-03-11T08:57:16.197Z,3.17
2023-03-11T08:59:20.982Z,10.05
2023-03-11T09:01:26.200Z,3.33
2023-03-11T09:03:34.099Z,3.55
2023-03-11T09:05:39.274Z,4.20
2023-03-11T09:09:54.717Z,2.38
2023-03-11T09:11:59.599Z,5.00
2023-03-11T09:14:04.475Z,4.53
2023-03-11T09:16:10.102Z,4.13
2023-03-11T09:18:16.085Z,2.70
2023-03-11T09:20:21.205Z,2.00
2023-03-11T09:22:26.081Z,5.40
2023-03-11T09:24:31.184Z,7.68
2023-03-11T09:26:40.998Z,4.25
2023-03-11T09:28:49.303Z,3.53
2023-03-11T09:30:54.405Z,3.25
2023-03-11T09:32:59.443Z,4.03
2023-03-11T09:35:04.248Z,3.22
2023-03-11T09:37:09.309Z,3.15
2023-03-11T09:39:14.296Z,2.95
2023-03-11T09:41:29.016Z,2.45
2023-03-11T09:43:49.976Z,3.67
2023-03-11T09:46:03.665Z,2.40
2023-03-11T09:48:21.748Z,2.90
2023-03-11T09:50:33.903Z,1.77
2023-03-11T09:52:45.945Z,2.33
2023-03-11T09:54:54.180Z,4.32
2023-03-11T09:56:59.702Z,2.72
2023-03-11T09:59:10.921Z,3.03
2023-03-11T10:01:20.948Z,4.40
2023-03-11T10:03:32.786Z,3.15
2023-03-11T10:05:37.689Z,2.97
2023-03-11T10:07:44.095Z,4.55
2023-03-11T10:09:53.867Z,3.40
2023-03-11T10:12:17.668Z,5.72
2023-03-11T10:14:40.217Z,11.20
2023-03-11T10:16:52.553Z,5.35
2023-03-11T10:19:06.536Z,14.50
2023-03-11T10:21:21.828Z,6.68
2023-03-11T10:23:35.847Z,4.07
2023-03-11T10:25:52.107Z,6.38
2023-03-11T10:28:01.724Z,5.65
2023-03-11T10:30:28.158Z,4.75
2023-03-11T10:32:40.748Z,4.07
2023-03-11T10:34:49.768Z,5.85
2023-03-11T10:37:03.928Z,24.73
2023-03-11T10:39:09.621Z,3.50
2023-03-11T10:41:21.292Z,3.05
2023-03-11T10:43:31.781Z,3.08
2023-03-11T10:45:43.464Z,5.05
2023-03-11T10:47:48.213Z,3.70
2023-03-11T10:49:53.295Z,5.22
2023-03-11T10:54:05.089Z,10.40
2023-03-11T10:56:26.924Z,4.80
2023-03-11T10:58:33.489Z,10.27
2023-03-11T11:00:40.809Z,3.03
2023-03-11T11:02:58.137Z,10.75
2023-03-11T11:05:28.078Z,5.82
2023-03-11T11:07:35.234Z,3.38
2023-03-11T11:09:40.113Z,4.35
2023-03-11T11:11:45.652Z,3.15
2023-03-11T11:13:59.521Z,7.20
2023-03-11T11:16:08.947Z,9.65
2023-03-11T11:18:21.027Z,5.32
2023-03-11T11:20:27.724Z,4.60
2023-03-11T11:22:33.017Z,4.40
2023-03-11T11:26:43.510Z,3.92
2023-03-11T11:28:48.369Z,1.73
2023-03-11T11:30:57.812Z,1.55
2023-03-11T11:33:26.719Z,3.63
2023-03-11T11:35:31.498Z,2.97
2023-03-11T11:37:38.549Z,4.35
2023-03-11T11:39:52.231Z,2.17
2023-03-11T11:41:59.481Z,2.80
2023-03-11T11:44:07.786Z,3.67
2023-03-11T11:46:21.987Z,2.63
2023-03-11T11:48:37.367Z,3.42
2023-03-11T11:50:47.960Z,2.00
2023-03-11T11:52:56.457Z,2.03
2023-03-11T11:55:06.702Z,2.95
2023-03-11T11:57:15.392Z,2.45
2023-03-11T11:59:21.863Z,2.47
2023-03-11T12:01:41.918Z,3.78
2023-03-11T12:04:28.304Z,2.47
2023-03-11T12:06:40.854Z,2.13
2023-03-11T12:08:50.373Z,4.43
2023-03-11T12:11:00.947Z,3.50
2023-03-11T12:13:46.267Z,4.25
2023-03-11T12:15:56.418Z,2.90
2023-03-11T12:18:37.590Z,3.45
2023-03-11T12:20:59.594Z,1.80
2023-03-11T12:23:50.051Z,4.03
2023-03-11T12:26:28.765Z,4.47
2023-03-11T12:29:02.754Z,3.38
2023-03-11T12:31:12.349Z,5.03
2023-03-11T12:33:23.768Z,6.57
2023-03-11T12:35:30.877Z,3.72
2023-03-11T12:37:52.540Z,12.45
2023-03-11T12:40:42.498Z,5.22
2023-03-11T12:46:02.484Z,2.30
2023-03-11T12:48:48.983Z,3.47
2023-03-11T12:51:03.252Z,3.00
2023-03-11T12:53:27.725Z,4.35
2023-03-11T12:55:40.580Z,2.55
2023-03-11T12:57:58.580Z,1.95
2023-03-11T13:00:25.641Z,4.85
2023-03-11T13:03:19.739Z,3.65
2023-03-11T13:05:32.757Z,3.20
2023-03-11T13:07:46.062Z,4.18
2023-03-11T13:10:16.961Z,5.30
2023-03-11T13:12:45.101Z,5.07
2023-03-11T13:15:01.247Z,12.25
2023-03-11T13:17:38.118Z,6.82
2023-03-11T13:20:00.311Z,3.72
2023-03-11T13:22:06.780Z,3.35
2023-03-11T13:24:47.365Z,3.80
2023-03-11T13:26:55.364Z,4.40
2023-03-11T13:29:41.771Z,2.58
2023-03-11T13:32:05.759Z,4.77
2023-03-11T13:34:26.129Z,2.88
2023-03-11T13:36:52.108Z,4.38
2023-03-11T13:39:34.480Z,9.25
2023-03-11T13:41:45.745Z,3.38
2023-03-11T13:44:03.038Z,3.63
2023-03-11T13:46:40.543Z,3.20
2023-03-11T13:48:56.359Z,5.82
2023-03-11T13:51:14.921Z,3.97
2023-03-11T13:53:31.158Z,6.95
2023-03-11T13:55:55.585Z,12.50
2023-03-11T13:58:18.412Z,4.53
2023-03-11T14:00:44.970Z,4.70
2023-03-11T14:03:05.245Z,2.65
2023-03-11T14:05:23.814Z,3.85
2023-03-11T14:07:45.066Z,6.40
2023-03-11T14:09:55.705Z,5.80
2023-03-11T14:12:07.862Z,6.03
2023-03-11T14:14:30.841Z,2.72
2023-03-11T14:16:44.389Z,3.58
2023-03-11T14:18:50.836Z,3.63
2023-03-11T14:20:59.335Z,5.80
2023-03-11T14:23:04.270Z,3.78
2023-03-11T14:27:19.326Z,4.60
2023-03-11T14:29:31.455Z,2.47
2023-03-11T14:31:37.894Z,5.20
2023-03-11T14:33:42.685Z,2.85
2023-03-11T14:35:55.109Z,3.20
2023-03-11T14:38:03.006Z,2.83
2023-03-11T14:40:27.689Z,4.30
2023-03-11T14:42:37.504Z,4.80
2023-03-11T14:44:45.348Z,5.05
2023-03-11T14:46:52.122Z,4.32
2023-03-11T14:48:59.020Z,4.07
2023-03-11T14:51:07.054Z,4.40
2023-03-11T14:53:20.433Z,5.00
2023-03-11T14:55:27.806Z,2.53
2023-03-11T14:57:40.790Z,2.13
2023-03-11T14:59:47.362Z,2.65
2023-03-11T15:01:53.675Z,3.88
2023-03-11T15:04:03.657Z,3.58
2023-03-11T15:06:11.692Z,3.20
2023-03-11T15:08:21.267Z,2.22
2023-03-11T15:10:26.212Z,4.60
2023-03-11T15:12:35.718Z,9.82
2023-03-11T15:14:52.596Z,18.25
2023-03-11T15:16:59.334Z,12.48
2023-03-11T15:19:23.626Z,6.47
2023-03-11T15:21:28.561Z,4.70
2023-03-11T15:23:38.004Z,5.07
2023-03-11T15:25:43.015Z,3.92
2023-03-11T15:27:48.489Z,4.85
2023-03-11T15:29:54.615Z,4.57
2023-03-11T15:32:00.030Z,3.97
2023-03-11T15:34:25.556Z,4.07
2023-03-11T15:36:32.893Z,4.88
2023-03-11T15:38:40.427Z,3.72
2023-03-11T15:40:54.560Z,5.30
2023-03-11T15:43:30.716Z,8.43
2023-03-11T15:45:39.531Z,4.32
2023-03-11T15:47:45.264Z,3.55
2023-03-11T15:49:50.328Z,2.08
2023-03-11T15:51:55.229Z,2.67
2023-03-11T15:54:02.624Z,4.65
2023-03-11T15:56:16.856Z,3.35
2023-03-11T15:58:23.308Z,6.55
2023-03-11T16:00:28.344Z,2.97
2023-03-11T16:04:38.761Z,7.75
2023-03-11T16:06:44.405Z,4.47
2023-03-11T16:08:49.331Z,6.65
2023-03-11T16:10:58.136Z,11.50
2023-03-11T16:13:02.906Z,12.50
2023-03-11T16:15:09.025Z,9.30
2023-03-11T16:17:15.183Z,8.68
2023-03-11T16:19:20.140Z,5.82
2023-03-11T16:21:30.464Z,21.23
2023-03-11T16:23:51.141Z,4.53
2023-03-11T16:26:01.661Z,8.23
2023-03-11T16:28:07.142Z,11.50
2023-03-11T16:30:16.114Z,9.05
2023-03-11T16:32:20.992Z,14.23
2023-03-11T16:34:25.833Z,10.15
2023-03-11T16:36:30.660Z,7.38
2023-03-11T16:38:46.435Z,6.93
2023-03-11T16:41:01.778Z,9.70
2023-03-11T16:43:08.512Z,8.52
2023-03-11T16:45:14.222Z,4.13
2023-03-11T16:47:19.225Z,9.20
2023-03-11T16:49:23.986Z,5.35
2023-03-11T16:51:28.846Z,10.85
2023-03-11T16:53:33.735Z,14.52
2023-03-11T16:55:38.518Z,6.82
2023-03-11T16:57:45.921Z,7.57
2023-03-11T16:59:52.080Z,6.93
2023-03-11T17:01:56.951Z,7.32
2023-03-11T17:04:01.801Z,3.65
2023-03-11T17:06:07.600Z,6.07
2023-03-11T17:08:13.081Z,3.42
2023-03-11T17:10:17.854Z,5.28
2023-03-11T17:12:23.207Z,10.80
2023-03-11T17:14:35.032Z,3.63
2023-03-11T17:16:39.826Z,6.75
2023-03-11T17:18:45.127Z,5.72
2023-03-11T17:22:54.717Z,6.75
2023-03-11T17:24:59.541Z,4.70
2023-03-11T17:27:04.319Z,7.45
2023-03-11T17:29:09.177Z,6.97
2023-03-11T17:31:18.068Z,5.70
2023-03-11T17:33:22.886Z,7.28
2023-03-11T17:35:27.641Z,5.45
2023-03-11T17:37:34.257Z,6.68
2023-03-11T17:39:39.089Z,7.78
2023-03-11T17:41:44.093Z,7.38
2023-03-11T17:43:51.438Z,4.95
2023-03-11T17:45:58.745Z,4.70
2023-03-11T17:48:06.265Z,4.38
2023-03-11T17:50:12.489Z,5.28
2023-03-11T17:52:17.649Z,23.48
2023-03-11T17:56:27.442Z,12.07
2023-03-11T18:00:37.027Z,10.38
2023-03-11T18:02:42.035Z,8.18
2023-03-11T18:04:53.903Z,8.75
2023-03-11T18:06:58.948Z,8.73
2023-03-11T18:09:03.924Z,18.55
2023-03-11T18:11:10.581Z,18.45
2023-03-11T18:13:15.367Z,13.93
2023-03-11T18:15:22.727Z,21.58
2023-03-11T18:17:29.074Z,11.65
2023-03-11T18:19:34.082Z,7.05
2023-03-11T18:21:41.524Z,6.97
2023-03-11T18:23:47.133Z,5.28
2023-03-11T18:25:55.345Z,5.97
2023-03-11T18:28:00.284Z,5.38
2023-03-11T18:30:05.131Z,6.15
2023-03-11T18:32:09.985Z,5.05
2023-03-11T18:34:15.158Z,6.68
2023-03-11T18:36:22.515Z,5.78
2023-03-11T18:38:29.968Z,4.95
2023-03-11T18:40:36.283Z,6.63
2023-03-11T18:42:41.091Z,5.30
2023-03-11T18:44:45.912Z,7.72
2023-03-11T18:46:50.648Z,7.38
2023-03-11T18:48:57.008Z,11.20
2023-03-11T18:51:01.777Z,8.82
2023-03-11T18:53:06.860Z,9.35
2023-03-11T18:57:19.083Z,12.95
2023-03-11T18:59:23.861Z,13.52
2023-03-11T19:01:29.721Z,10.27
2023-03-11T19:03:34.893Z,15.13
2023-03-11T19:05:39.724Z,10.35
2023-03-11T19:07:44.503Z,12.98
2023-03-11T19:09:51.579Z,11.32
2023-03-11T19:11:58.943Z,13.00
2023-03-11T19:14:03.790Z,10.65
2023-03-11T19:16:10.399Z,11.88
2023-03-11T19:18:15.341Z,10.88
2023-03-11T19:20:20.710Z,12.13
2023-03-11T19:22:25.625Z,14.77
2023-03-11T19:24:30.392Z,12.98
2023-03-11T19:26:44.912Z,13.43
2023-03-11T19:28:53.752Z,16.08
2023-03-11T19:31:00.571Z,15.23
2023-03-11T19:33:05.456Z,19.80
2023-03-11T19:35:13.782Z,19.45
2023-03-11T19:37:19.110Z,19.92
2023-03-11T19:39:25.067Z,18.42
2023-03-11T19:41:29.917Z,18.75
2023-03-11T19:43:38.305Z,18.65
2023-03-11T19:45:45.680Z,16.40
2023-03-11T19:47:51.647Z,15.23
2023-03-11T19:49:56.418Z,16.02
2023-03-11T19:52:01.217Z,14.20
2023-03-11T19:54:06.333Z,16.10
2023-03-11T19:56:11.879Z,12.73
2023-03-11T19:58:16.684Z,15.98
2023-03-11T20:00:22.750Z,14.80
2023-03-11T20:02:30.336Z,14.48
2023-03-11T20:04:37.769Z,14.07
2023-03-11T20:06:46.357Z,16.70
2023-03-11T20:10:56.627Z,13.82
2023-03-11T20:13:02.942Z,13.10
2023-03-11T20:15:08.844Z,12.13
2023-03-11T20:17:14.134Z,11.80
2023-03-11T20:19:21.964Z,11.98
2023-03-11T20:21:26.914Z,14.38
2023-03-11T20:23:31.750Z,13.02
2023-03-11T20:25:36.664Z,15.45
2023-03-11T20:27:41.511Z,15.95
2023-03-11T20:29:46.372Z,14.88
2023-03-11T20:31:53.948Z,16.05
2023-03-11T20:34:00.481Z,14.73
2023-03-11T20:36:13.905Z,15.30
2023-03-11T20:38:18.878Z,15.77
2023-03-11T20:40:23.969Z,17.67
2023-03-11T20:42:28.825Z,15.38
2023-03-11T20:44:33.655Z,18.90
2023-03-11T20:46:38.492Z,16.98
2023-03-11T20:48:43.702Z,33.15
2023-03-11T20:52:56.033Z,26.85
2023-03-11T20:55:00.890Z,25.10
2023-03-11T20:57:06.701Z,30.08
2023-03-11T20:59:13.686Z,26.85
2023-03-11T21:01:21.229Z,22.30
2023-03-11T21:03:26.320Z,19.90
2023-03-11T21:05:31.323Z,20.85
2023-03-11T21:07:36.224Z,21.52
2023-03-11T21:09:43.740Z,17.17
2023-03-11T21:11:48.704Z,20.90
2023-03-11T21:13:53.998Z,25.20
2023-03-11T21:18:03.608Z,24.42
2023-03-11T21:20:09.438Z,26.90
2023-03-11T21:22:14.271Z,19.38
2023-03-11T21:24:19.166Z,20.40
2023-03-11T21:26:26.757Z,22.23
2023-03-11T21:28:31.853Z,20.55
2023-03-11T21:30:36.646Z,24.27
2023-03-11T21:32:41.774Z,24.95
2023-03-11T21:34:46.630Z,23.27
2023-03-11T21:36:51.884Z,16.13
2023-03-11T21:38:57.284Z,14.02
2023-03-11T21:41:09.682Z,15.02
2023-03-11T21:43:17.361Z,14.43
2023-03-11T21:45:22.358Z,14.75
2023-03-11T21:47:27.262Z,10.05
2023-03-11T21:49:32.200Z,17.65
2023-03-11T21:51:37.139Z,21.20
2023-03-11T21:53:41.981Z,16.52
2023-03-11T21:55:47.395Z,18.00
2023-03-11T21:57:52.444Z,17.17
2023-03-11T21:59:59.897Z,16.25
2023-03-11T22:02:04.840Z,16.17
2023-03-11T22:04:09.829Z,15.38
2023-03-11T22:06:15.724Z,14.95
2023-03-11T22:08:20.693Z,13.70
2023-03-11T22:10:25.599Z,13.48
2023-03-11T22:12:30.517Z,16.92
2023-03-11T22:14:38.304Z,15.13
2023-03-11T22:16:45.839Z,13.77
2023-03-11T22:18:51.854Z,13.52
2023-03-11T22:20:56.635Z,14.48
2023-03-11T22:23:02.342Z,15.32
2023-03-11T22:25:08.140Z,12.65
2023-03-11T22:27:12.972Z,11.18
2023-03-11T22:29:18.282Z,10.50
2023-03-11T22:31:23.183Z,12.40
2023-03-11T22:33:30.576Z,11.07
2023-03-11T22:35:36.730Z,10.00
2023-03-11T22:37:41.545Z,11.00
2023-03-11T22:39:46.316Z,15.93
2023-03-11T22:41:51.103Z,11.23
2023-03-11T22:43:55.898Z,12.60
2023-03-11T22:46:02.340Z,14.43
2023-03-11T22:48:07.740Z,10.82
2023-03-11T22:52:21.497Z,11.00
2023-03-11T22:54:26.358Z,11.90
2023-03-11T22:56:31.319Z,11.75
